Time;durP1;ratioP1;P1;durP2;ratioP2;P2;SDS_P1;SDS_P2;PMS_P1;PMS_P2;Temp;Humidity;BMP_temperature;BMP_pressure;BME280_temperature;BME280_humidity;BME280_pressure;Samples;Min_cycle;Max_cycle;Signal;HPM_P1;HPM_P2
2021/03/22 00:02:23;;;;;;;19.48;3.25;;;4.30;90.70;;;;;;4977441;28;20039;-88
2021/03/22 00:04:49;;;;;;;14.00;3.30;;;4.40;90.70;;;;;;4984116;28;20432;-88
2021/03/22 00:07:14;;;;;;;18.27;3.38;;;4.30;90.70;;;;;;5042869;28;20057;-88
2021/03/22 00:09:40;;;;;;;18.38;2.90;;;4.30;90.70;;;;;;4970580;28;20068;-89
2021/03/22 00:12:06;;;;;;;10.98;2.67;;;4.40;90.60;;;;;;4974922;28;20137;-88
2021/03/22 00:14:32;;;;;;;13.60;2.85;;;4.40;90.50;;;;;;4975535;28;20089;-87
2021/03/22 00:16:57;;;;;;;16.05;2.70;;;4.40;90.70;;;;;;4957036;28;20093;-89
2021/03/22 00:19:23;;;;;;;6.35;2.20;;;4.30;90.70;;;;;;4976874;28;20274;-89
2021/03/22 00:21:48;;;;;;;11.43;2.78;;;4.30;90.60;;;;;;4965143;28;20042;-88
2021/03/22 00:24:14;;;;;;;22.02;3.08;;;4.30;90.70;;;;;;4966824;28;20346;-88
2021/03/22 00:26:39;;;;;;;8.60;2.80;;;4.30;90.70;;;;;;4967845;28;20211;-87
2021/03/22 00:29:05;;;;;;;21.88;3.05;;;4.30;91.00;;;;;;4953034;28;20296;-89
2021/03/22 00:31:30;;;;;;;12.18;2.92;;;4.20;90.80;;;;;;4982620;28;20313;-86
2021/03/22 00:33:57;;;;;;;19.20;3.50;;;4.20;90.80;;;;;;4959864;28;20046;-87
2021/03/22 00:36:23;;;;;;;16.23;3.30;;;4.20;90.70;;;;;;4985831;28;20050;-87
2021/03/22 00:38:49;;;;;;;13.27;2.63;;;4.20;90.70;;;;;;4960133;28;20046;-88
2021/03/22 00:41:15;;;;;;;21.02;3.25;;;4.20;90.70;;;;;;4966941;28;20039;-88
2021/03/22 00:43:40;;;;;;;16.42;3.13;;;4.20;90.70;;;;;;4969680;28;20117;-89
2021/03/22 00:46:06;;;;;;;19.33;3.63;;;4.20;90.60;;;;;;4975185;28;20671;-88
2021/03/22 00:48:35;;;;;;;17.70;3.25;;;4.20;90.70;;;;;;4984010;28;20051;-89
2021/03/22 00:51:03;;;;;;;16.80;2.92;;;4.20;90.80;;;;;;4992665;28;20111;-89
2021/03/22 00:53:29;;;;;;;10.55;2.90;;;4.10;90.80;;;;;;4983693;28;20038;-87
2021/03/22 00:55:55;;;;;;;11.07;2.55;;;4.10;91.10;;;;;;5063933;28;20053;-89
2021/03/22 00:58:20;;;;;;;24.20;3.47;;;4.10;90.80;;;;;;4964224;28;20324;-89
2021/03/22 01:00:54;;;;;;;14.50;3.28;;;4.10;90.80;;;;;;5063744;28;20123;-90
2021/03/22 01:03:31;;;;;;;19.55;3.65;;;4.10;90.80;;;;;;4994455;28;20092;-89
2021/03/22 01:05:58;;;;;;;8.73;2.47;;;4.10;90.80;;;;;;4972911;28;20037;-90
2021/03/22 01:08:26;;;;;;;11.60;2.35;;;4.10;90.80;;;;;;4972844;28;20070;-88
2021/03/22 01:10:57;;;;;;;14.77;3.40;;;4.20;90.80;;;;;;4977234;28;20057;-88
2021/03/22 01:13:28;;;;;;;15.02;3.40;;;4.20;90.80;;;;;;4968689;28;20042;-89
2021/03/22 01:15:55;;;;;;;11.60;3.80;;;4.10;90.80;;;;;;4983181;28;20130;-88
2021/03/22 01:18:24;;;;;;;16.92;3.17;;;4.20;90.80;;;;;;4980669;28;20046;-88
2021/03/22 01:20:54;;;;;;;13.95;3.35;;;4.20;90.80;;;;;;4968436;28;20043;-89
2021/03/22 01:23:20;;;;;;;15.27;3.33;;;4.30;90.70;;;;;;4962075;28;20061;-87
2021/03/22 01:25:46;;;;;;;13.05;3.17;;;4.30;90.70;;;;;;5053975;28;20041;-88
2021/03/22 01:28:13;;;;;;;14.73;3.10;;;4.30;90.70;;;;;;4963002;28;20042;-90
2021/03/22 01:30:47;;;;;;;16.70;2.72;;;4.30;90.60;;;;;;4987736;28;20030;-90
2021/03/22 01:33:14;;;;;;;14.77;3.33;;;4.30;90.60;;;;;;5041871;28;20289;-89
2021/03/22 01:35:40;;;;;;;17.38;2.63;;;4.30;90.50;;;;;;5042369;28;20118;-88
2021/03/22 01:38:06;;;;;;;21.38;3.47;;;4.30;90.50;;;;;;4980029;28;20459;-89
2021/03/22 01:40:38;;;;;;;12.85;3.20;;;4.30;90.50;;;;;;4950759;28;20053;-89
2021/03/22 01:43:14;;;;;;;14.88;3.08;;;4.20;90.50;;;;;;5060277;28;20039;-88
2021/03/22 01:45:39;;;;;;;17.23;3.33;;;4.30;90.60;;;;;;4959690;28;20382;-88
2021/03/22 01:48:05;;;;;;;16.05;3.38;;;4.20;90.50;;;;;;4988959;28;20071;-88
2021/03/22 01:50:31;;;;;;;15.90;2.83;;;4.20;90.60;;;;;;4978603;28;20042;-89
2021/03/22 01:53:00;;;;;;;15.50;3.72;;;4.20;90.60;;;;;;4963343;28;20042;-88
2021/03/22 01:55:26;;;;;;;16.23;3.00;;;4.20;90.60;;;;;;4958450;28;20049;-88
2021/03/22 01:57:52;;;;;;;7.97;2.47;;;4.30;90.60;;;;;;4970131;28;20039;-89
2021/03/22 02:00:27;;;;;;;12.07;3.25;;;4.30;90.50;;;;;;4974457;28;20117;-88
2021/03/22 02:03:05;;;;;;;20.25;3.65;;;4.30;90.60;;;;;;4963829;28;20340;-88
2021/03/22 02:05:31;;;;;;;17.35;4.10;;;4.30;90.60;;;;;;4982415;28;20137;-87
2021/03/22 02:08:24;;;;;;;18.77;2.97;;;4.30;90.50;;;;;;4975782;28;20554;-86
2021/03/22 02:10:50;;;;;;;21.55;2.83;;;4.30;90.60;;;;;;4972023;28;20045;-89
2021/03/22 02:13:21;;;;;;;15.98;2.33;;;4.40;90.50;;;;;;4943982;28;20035;-89
2021/03/22 02:15:47;;;;;;;12.68;3.25;;;4.40;90.50;;;;;;5058227;28;20809;-89
2021/03/22 02:18:34;;;;;;;15.63;2.45;;;4.40;90.40;;;;;;4972731;28;20061;-89
2021/03/22 02:21:37;;;;;;;9.05;2.25;;;4.40;90.30;;;;;;4950785;28;20274;-89
2021/03/22 02:24:21;;;;;;;;;;;4.50;90.40;;;;;;5057239;28;20073;-88
2021/03/22 02:27:26;;;;;;;15.85;3.00;;;4.50;90.60;;;;;;4980694;28;19914;-89
2021/03/22 02:30:13;;;;;;;12.77;2.95;;;4.40;90.40;;;;;;4967198;28;20052;-89
2021/03/22 02:33:12;;;;;;;10.38;2.15;;;4.40;90.50;;;;;;5043357;28;20043;-88
2021/03/22 02:36:01;;;;;;;15.52;2.75;;;4.40;90.70;;;;;;4959185;28;20054;-88
2021/03/22 02:38:31;;;;;;;17.70;2.47;;;4.40;90.70;;;;;;5056224;28;20111;-89
2021/03/22 02:41:03;;;;;;;15.63;3.33;;;4.40;90.60;;;;;;4990822;28;20476;-88
2021/03/22 02:43:33;;;;;;;14.45;2.88;;;4.40;90.60;;;;;;4969698;28;20316;-89
2021/03/22 02:45:59;;;;;;;24.98;3.20;;;4.50;90.60;;;;;;4967258;28;20035;-88
2021/03/22 02:48:27;;;;;;;10.43;3.13;;;4.60;90.60;;;;;;4961598;28;20051;-88
2021/03/22 02:51:08;;;;;;;23.60;3.25;;;4.60;90.40;;;;;;4957950;28;20358;-90
2021/03/22 02:53:42;;;;;;;22.95;3.13;;;4.60;90.30;;;;;;4974429;28;20041;-87
2021/03/22 02:56:24;;;;;;;19.35;3.22;;;4.60;90.20;;;;;;4967161;28;20192;-87
2021/03/22 02:58:59;;;;;;;12.52;2.30;;;4.70;90.20;;;;;;4975560;28;20059;-87
2021/03/22 03:01:31;;;;;;;27.90;3.45;;;4.70;90.10;;;;;;4961781;28;20039;-88
2021/03/22 03:03:59;;;;;;;22.27;3.50;;;4.80;90.20;;;;;;4974722;28;20103;-88
2021/03/22 03:06:50;;;;;;;20.27;3.15;;;4.80;90.20;;;;;;4965660;28;20039;-88
2021/03/22 03:09:17;;;;;;;14.02;2.88;;;4.80;90.00;;;;;;4999885;28;20043;-88
2021/03/22 03:11:44;;;;;;;9.20;2.47;;;4.80;90.00;;;;;;4971698;28;20035;-89
2021/03/22 03:14:09;;;;;;;13.20;3.20;;;4.80;89.90;;;;;;4982131;28;20066;-88
2021/03/22 03:16:35;;;;;;;18.60;2.55;;;4.90;90.00;;;;;;5063216;28;20456;-89
2021/03/22 03:19:00;;;;;;;19.25;3.10;;;4.90;89.80;;;;;;4961562;28;20047;-89
2021/03/22 03:21:26;;;;;;;24.45;3.58;;;4.90;90.10;;;;;;4976903;28;20034;-89
2021/03/22 03:23:52;;;;;;;18.20;3.60;;;4.90;89.90;;;;;;4962478;28;20129;-88
2021/03/22 03:26:18;;;;;;;14.10;2.55;;;4.90;89.90;;;;;;4981759;28;20073;-88
2021/03/22 03:28:44;;;;;;;16.20;2.60;;;5.00;89.80;;;;;;4993894;28;20359;-88
2021/03/22 03:31:09;;;;;;;21.45;3.22;;;4.90;90.00;;;;;;5045382;28;20096;-89
2021/03/22 03:33:35;;;;;;;20.42;3.20;;;5.00;89.70;;;;;;4952868;28;20045;-87
2021/03/22 03:36:00;;;;;;;16.55;3.85;;;5.00;89.30;;;;;;4993988;28;20057;-88
2021/03/22 03:38:26;;;;;;;15.52;3.10;;;5.00;89.20;;;;;;4978737;28;20046;-88
2021/03/22 03:40:51;;;;;;;17.25;2.63;;;5.00;89.70;;;;;;4972568;28;20066;-88
2021/03/22 03:43:17;;;;;;;13.52;2.72;;;5.00;89.60;;;;;;4959677;28;20031;-87
2021/03/22 03:45:45;;;;;;;14.70;2.88;;;5.00;89.30;;;;;;4962368;28;20035;-89
2021/03/22 03:48:14;;;;;;;22.40;3.35;;;5.00;89.20;;;;;;4980416;28;20054;-86
2021/03/22 03:50:40;;;;;;;24.70;3.00;;;5.00;89.10;;;;;;4973376;28;20152;-87
2021/03/22 03:53:06;;;;;;;13.48;2.85;;;5.00;89.30;;;;;;4974923;28;20054;-88
2021/03/22 03:55:32;;;;;;;10.48;2.22;;;5.00;89.30;;;;;;4971822;28;20302;-88
2021/03/22 03:57:58;;;;;;;13.70;3.22;;;5.00;89.30;;;;;;4973275;28;20099;-88
2021/03/22 04:00:32;;;;;;;13.90;3.08;;;5.00;89.70;;;;;;4958376;28;20042;-87
2021/03/22 04:03:12;;;;;;;20.95;3.17;;;5.10;89.50;;;;;;5041215;28;20039;-89
2021/03/22 04:05:37;;;;;;;16.55;3.05;;;5.10;89.40;;;;;;4966604;28;20881;-88
2021/03/22 04:08:03;;;;;;;20.38;2.83;;;5.10;89.30;;;;;;4959801;28;20121;-87
2021/03/22 04:10:29;;;;;;;12.80;3.13;;;5.10;89.30;;;;;;4977929;28;20050;-88
2021/03/22 04:12:54;;;;;;;11.85;3.42;;;5.20;89.00;;;;;;5061143;28;20397;-88
2021/03/22 04:15:19;;;;;;;15.27;3.35;;;5.20;89.30;;;;;;4960594;28;21228;-88
2021/03/22 04:17:45;;;;;;;18.80;3.78;;;5.20;89.40;;;;;;4961179;28;20088;-89
2021/03/22 04:20:11;;;;;;;18.75;2.83;;;5.20;89.10;;;;;;4992015;28;20038;-88
2021/03/22 04:22:37;;;;;;;9.35;3.53;;;5.20;89.00;;;;;;4965644;28;20039;-89
2021/03/22 04:25:03;;;;;;;21.80;3.17;;;5.30;89.10;;;;;;4960304;28;20381;-88
2021/03/22 04:27:29;;;;;;;16.45;3.17;;;5.30;88.80;;;;;;4976964;28;20365;-88
2021/03/22 04:29:54;;;;;;;18.17;2.85;;;5.30;88.50;;;;;;4961933;28;20137;-89
2021/03/22 04:32:20;;;;;;;19.60;2.70;;;5.30;88.70;;;;;;4972458;28;20041;-89
2021/03/22 04:34:45;;;;;;;20.55;4.25;;;5.30;88.60;;;;;;4979885;28;20057;-89
2021/03/22 04:37:11;;;;;;;21.42;4.18;;;5.30;88.70;;;;;;4970293;28;20054;-89
2021/03/22 04:39:37;;;;;;;19.00;2.60;;;5.30;88.40;;;;;;4969649;28;20065;-89
2021/03/22 04:42:03;;;;;;;21.65;3.08;;;5.30;88.80;;;;;;4992999;28;20064;-88
2021/03/22 04:44:29;;;;;;;16.98;4.25;;;5.30;88.80;;;;;;4984073;28;20129;-88
2021/03/22 04:46:54;;;;;;;21.77;3.65;;;5.20;88.90;;;;;;4973946;28;20133;-88
2021/03/22 04:49:20;;;;;;;26.45;3.40;;;5.20;89.10;;;;;;4965478;28;20517;-89
2021/03/22 04:51:45;;;;;;;14.52;4.00;;;5.20;89.10;;;;;;5049967;28;20129;-87
2021/03/22 04:54:11;;;;;;;16.10;3.42;;;5.30;89.10;;;;;;4966240;28;20537;-89
2021/03/22 04:56:36;;;;;;;14.35;3.25;;;5.30;88.90;;;;;;4973366;28;20585;-88
2021/03/22 04:59:02;;;;;;;15.45;3.70;;;5.30;88.80;;;;;;4969139;28;20054;-88
2021/03/22 05:01:28;;;;;;;24.60;3.45;;;5.30;88.90;;;;;;4969555;28;20388;-89
2021/03/22 05:03:53;;;;;;;15.20;2.42;;;5.30;88.90;;;;;;5020578;28;20117;-89
2021/03/22 05:06:19;;;;;;;13.65;3.15;;;5.30;88.90;;;;;;4964292;28;20050;-88
2021/03/22 05:08:45;;;;;;;14.32;4.90;;;5.40;88.80;;;;;;4959748;28;20046;-88
2021/03/22 05:11:11;;;;;;;22.05;3.95;;;5.30;88.80;;;;;;4966635;28;20047;-88
2021/03/22 05:13:36;;;;;;;15.38;2.42;;;5.30;89.00;;;;;;4985060;28;20035;-88
2021/03/22 05:16:02;;;;;;;19.70;3.55;;;5.30;88.80;;;;;;5004776;28;20307;-89
2021/03/22 05:18:31;;;;;;;12.95;4.03;;;5.40;88.90;;;;;;4974183;28;20320;-88
2021/03/22 05:20:59;;;;;;;22.67;3.80;;;5.30;88.80;;;;;;4958838;28;20038;-88
2021/03/22 05:23:27;;;;;;;12.57;3.38;;;5.30;88.90;;;;;;4974800;28;20046;-88
2021/03/22 05:25:54;;;;;;;11.68;3.70;;;5.30;89.10;;;;;;4962203;28;20822;-88
2021/03/22 05:28:22;;;;;;;20.00;3.72;;;5.40;89.10;;;;;;5061840;28;20104;-90
2021/03/22 05:30:48;;;;;;;15.10;3.40;;;5.40;88.90;;;;;;4957870;28;20100;-88
2021/03/22 05:33:16;;;;;;;18.33;3.40;;;5.40;88.90;;;;;;5054304;28;20388;-88
2021/03/22 05:35:44;;;;;;;18.42;4.22;;;5.40;89.00;;;;;;4973956;28;20121;-88
2021/03/22 05:38:10;;;;;;;16.75;3.53;;;5.40;88.60;;;;;;4969755;28;20045;-88
2021/03/22 05:40:38;;;;;;;20.08;3.08;;;5.40;88.70;;;;;;4965765;28;20066;-88
2021/03/22 05:43:25;;;;;;;13.63;4.00;;;5.40;88.80;;;;;;4973601;28;20069;-89
2021/03/22 05:45:57;;;;;;;16.23;2.92;;;5.30;89.10;;;;;;5060148;28;20038;-89
2021/03/22 05:48:41;;;;;;;15.68;3.17;;;5.30;89.10;;;;;;4968118;28;20096;-89
2021/03/22 05:51:30;;;;;;;10.77;2.95;;;5.30;89.30;;;;;;5002820;28;20051;-88
2021/03/22 05:53:59;;;;;;;11.15;3.25;;;5.30;89.40;;;;;;4981172;28;20042;-90
2021/03/22 05:56:34;;;;;;;21.63;4.35;;;5.30;89.90;;;;;;4977484;28;20066;-88
2021/03/22 05:59:00;;;;;;;14.35;3.30;;;5.30;89.90;;;;;;4952952;28;20073;-90
2021/03/22 06:01:34;;;;;;;27.50;3.67;;;5.30;89.90;;;;;;5054421;28;20039;-88
2021/03/22 06:04:15;;;;;;;14.07;3.40;;;5.30;89.60;;;;;;4956949;28;20130;-88
2021/03/22 06:06:46;;;;;;;16.48;3.75;;;5.30;89.60;;;;;;5003567;28;20135;-89
2021/03/22 06:09:32;;;;;;;12.02;3.97;;;5.20;89.80;;;;;;5058739;28;20040;-87
2021/03/22 06:12:20;;;;;;;16.38;3.30;;;5.30;90.10;;;;;;5058177;28;20108;-89
2021/03/22 06:15:02;;;;;;;19.90;3.95;;;5.20;89.80;;;;;;4981411;28;20045;-88
2021/03/22 06:17:42;;;;;;;20.38;4.47;;;5.30;90.00;;;;;;4967303;28;20050;-89
2021/03/22 06:20:19;;;;;;;14.05;4.13;;;5.30;90.10;;;;;;4974752;28;20412;-89
2021/03/22 06:22:45;;;;;;;12.65;3.38;;;5.30;90.00;;;;;;4964156;28;20042;-88
2021/03/22 06:25:18;;;;;;;11.18;3.53;;;5.30;90.00;;;;;;4977156;28;20123;-88
2021/03/22 06:27:49;;;;;;;17.67;3.83;;;5.40;89.90;;;;;;4986449;28;20050;-87
2021/03/22 06:30:19;;;;;;;18.65;3.42;;;5.40;89.50;;;;;;4970449;28;20043;-89
2021/03/22 06:32:48;;;;;;;25.83;4.97;;;5.40;89.40;;;;;;4974571;28;20462;-87
2021/03/22 06:35:33;;;;;;;9.07;3.75;;;5.40;89.30;;;;;;4957816;28;20138;-87
2021/03/22 06:37:59;;;;;;;15.85;3.63;;;5.40;89.90;;;;;;4958776;28;20071;-89
2021/03/22 06:40:24;;;;;;;17.50;4.07;;;5.30;90.10;;;;;;4974318;28;20493;-89
2021/03/22 06:43:11;;;;;;;13.77;3.78;;;5.20;90.30;;;;;;4959556;28;20153;-87
2021/03/22 06:45:40;;;;;;;26.10;3.65;;;5.30;90.30;;;;;;5055239;28;20038;-89
2021/03/22 06:48:20;;;;;;;17.67;3.10;;;5.20;90.10;;;;;;4974110;28;20165;-90
2021/03/22 06:50:49;;;;;;;14.85;3.70;;;5.30;90.40;;;;;;5020073;28;20089;-90
2021/03/22 06:53:33;;;;;;;22.05;3.60;;;5.20;90.00;;;;;;4998375;28;20448;-89
2021/03/22 06:56:25;;;;;;;17.65;3.85;;;5.20;90.30;;;;;;4957242;28;20375;-89
2021/03/22 06:59:12;;;;;;;19.45;4.65;;;5.20;90.30;;;;;;5074948;28;20065;-89
2021/03/22 07:01:39;;;;;;;18.73;3.95;;;5.30;90.10;;;;;;4973421;28;20035;-89
2021/03/22 07:04:22;;;;;;;27.83;3.85;;;5.30;90.10;;;;;;4973569;28;20282;-90
2021/03/22 07:07:09;;;;;;;17.50;3.40;;;5.40;90.00;;;;;;4982922;28;20126;-89
2021/03/22 07:09:38;;;;;;;12.75;3.30;;;5.30;90.00;;;;;;4957017;28;20039;-90
2021/03/22 07:12:05;;;;;;;17.55;4.10;;;5.40;90.00;;;;;;5060534;28;20107;-89
2021/03/22 07:14:32;;;;;;;17.77;3.85;;;5.40;90.00;;;;;;4973915;28;20054;-88
2021/03/22 07:17:24;;;;;;;18.00;3.30;;;5.40;90.20;;;;;;4989791;28;20038;-89
2021/03/22 07:20:13;;;;;;;9.80;3.53;;;5.30;90.10;;;;;;4993021;28;20439;-89
2021/03/22 07:22:39;;;;;;;21.73;3.97;;;5.20;90.30;;;;;;4973981;28;20396;-89
2021/03/22 07:25:40;;;;;;;12.35;3.92;;;5.30;90.20;;;;;;4990053;28;20412;-88
2021/03/22 07:28:19;;;;;;;24.77;4.18;;;5.20;90.20;;;;;;4973454;28;20039;-90
2021/03/22 07:31:06;;;;;;;14.10;4.10;;;5.30;90.30;;;;;;5058013;28;20046;-88
2021/03/22 07:33:52;;;;;;;18.20;3.38;;;5.40;90.40;;;;;;4956775;28;20039;-91
2021/03/22 07:36:34;;;;;;;25.02;4.43;;;5.50;90.00;;;;;;4969772;28;20073;-88
2021/03/22 07:39:05;;;;;;;14.38;4.43;;;5.60;90.00;;;;;;4953170;28;20054;-88
2021/03/22 07:41:57;;;;;;;15.80;3.70;;;5.60;90.10;;;;;;4971901;28;20073;-87
2021/03/22 07:44:45;;;;;;;18.20;4.13;;;5.70;90.00;;;;;;4973017;28;20039;-86
2021/03/22 07:47:48;;;;;;;6.28;3.30;;;5.70;90.00;;;;;;4972874;28;20278;-88
2021/03/22 07:50:21;;;;;;;14.07;3.70;;;5.70;90.00;;;;;;4983992;28;20070;-87
2021/03/22 07:53:03;;;;;;;;;;;5.70;89.80;;;;;;4973414;28;20039;-88
2021/03/22 07:55:43;;;;;;;16.80;4.47;;;5.70;89.80;;;;;;4989677;28;19910;-89
2021/03/22 07:58:34;;;;;;;13.85;4.20;;;5.80;89.60;;;;;;4989594;28;20039;-91
2021/03/22 08:01:34;;;;;;;15.52;3.58;;;5.70;89.50;;;;;;5053982;28;20078;-89
2021/03/22 08:04:37;;;;;;;26.23;5.00;;;5.70;90.00;;;;;;4979565;28;20042;-88
2021/03/22 08:07:22;;;;;;;24.70;4.77;;;5.70;89.80;;;;;;4973796;28;20045;-88
2021/03/22 08:10:19;;;;;;;14.93;3.88;;;5.70;89.80;;;;;;4961137;28;20042;-87
2021/03/22 08:13:05;;;;;;;15.63;4.53;;;5.70;89.80;;;;;;4970380;28;20039;-88
2021/03/22 08:15:41;;;;;;;15.95;4.65;;;5.80;89.80;;;;;;4992984;28;20096;-88
2021/03/22 08:18:38;;;;;;;19.20;6.55;;;5.80;89.60;;;;;;4956132;28;20035;-87
2021/03/22 08:21:28;;;;;;;17.40;4.95;;;5.80;89.60;;;;;;4971854;28;20046;-88
2021/03/22 08:24:28;;;;;;;25.67;6.95;;;5.90;89.20;;;;;;4974609;28;20043;-90
2021/03/22 08:27:18;;;;;;;24.70;5.60;;;6.00;88.90;;;;;;4975061;28;20042;-88
2021/03/22 08:30:14;;;;;;;18.40;5.85;;;6.00;88.70;;;;;;4977320;28;20043;-87
2021/03/22 08:32:44;;;;;;;13.98;5.72;;;6.00;88.70;;;;;;4978159;28;20070;-88
2021/03/22 08:35:30;;;;;;;20.83;7.03;;;6.10;89.50;;;;;;4992311;28;20109;-88
2021/03/22 08:38:12;;;;;;;14.80;6.20;;;6.30;87.70;;;;;;4976077;28;20134;-88
2021/03/22 08:40:50;;;;;;;25.63;8.02;;;6.40;87.20;;;;;;4970207;28;20473;-87
2021/03/22 08:43:35;;;;;;;21.38;6.72;;;6.50;88.20;;;;;;4956678;28;20039;-88
2021/03/22 08:46:38;;;;;;;21.35;5.53;;;6.70;86.40;;;;;;4972160;28;20043;-89
2021/03/22 08:49:19;;;;;;;20.48;6.00;;;6.80;86.20;;;;;;4963950;28;20463;-88
2021/03/22 08:51:45;;;;;;;29.33;10.27;;;6.90;86.10;;;;;;4956361;28;20136;-88
2021/03/22 08:54:35;;;;;;;20.10;6.90;;;7.00;86.10;;;;;;4961070;28;20050;-88
2021/03/22 08:57:25;;;;;;;17.58;5.25;;;7.10;84.50;;;;;;4969395;28;20130;-90
2021/03/22 09:00:26;;;;;;;16.92;4.90;;;7.20;84.50;;;;;;4967502;28;20119;-89
2021/03/22 09:02:58;;;;;;;13.30;5.43;;;7.20;84.80;;;;;;4974185;28;20119;-88
2021/03/22 09:05:26;;;;;;;19.27;5.82;;;7.30;84.80;;;;;;4981504;28;20038;-89
2021/03/22 09:07:51;;;;;;;16.65;5.57;;;7.40;84.00;;;;;;4963816;28;20367;-89
2021/03/22 09:10:28;;;;;;;23.20;7.18;;;7.40;83.60;;;;;;4961734;28;20039;-89
2021/03/22 09:13:06;;;;;;;16.08;5.18;;;7.30;83.70;;;;;;4957342;28;20042;-89
2021/03/22 09:15:38;;;;;;;14.48;4.57;;;7.30;84.00;;;;;;4953886;28;20111;-89
2021/03/22 09:18:04;;;;;;;;;;;7.40;84.10;;;;;;5057505;28;20125;-91
2021/03/22 09:20:51;;;;;;;17.85;6.20;;;7.40;84.10;;;;;;4982962;28;19996;-89
2021/03/22 09:23:38;;;;;;;20.63;5.57;;;7.40;84.80;;;;;;4959333;28;20129;-89
2021/03/22 09:26:06;;;;;;;22.35;6.10;;;7.50;83.40;;;;;;5049570;28;20061;-88
2021/03/22 09:28:36;;;;;;;15.68;5.20;;;7.60;84.60;;;;;;4975982;28;20588;-89
2021/03/22 09:31:04;;;;;;;17.90;4.95;;;7.80;82.60;;;;;;4953316;28;20109;-88
2021/03/22 09:33:55;;;;;;;16.55;6.03;;;7.80;81.80;;;;;;4956475;28;20053;-89
2021/03/22 09:36:29;;;;;;;14.75;5.15;;;7.90;82.80;;;;;;4987745;28;20135;-89
2021/03/22 09:38:55;;;;;;;17.15;4.97;;;8.10;82.10;;;;;;4953496;28;20432;-88
2021/03/22 09:41:59;;;;;;;18.92;5.70;;;8.30;82.00;;;;;;4974275;28;20064;-91
2021/03/22 09:44:35;;;;;;;11.30;4.40;;;8.30;80.00;;;;;;4972931;28;20045;-90
2021/03/22 09:47:13;;;;;;;12.55;4.20;;;8.30;79.80;;;;;;4994130;28;20077;-89
2021/03/22 09:49:57;;;;;;;13.18;4.28;;;8.30;80.60;;;;;;4951814;28;20352;-89
2021/03/22 09:52:30;;;;;;;17.63;5.55;;;8.20;80.20;;;;;;4976446;28;20137;-89
2021/03/22 09:54:56;;;;;;;;;;;8.20;80.60;;;;;;4958951;28;20042;-88
2021/03/22 09:57:38;;;;;;;13.60;4.68;;;8.20;79.40;;;;;;4974055;28;19948;-89
2021/03/22 10:00:06;;;;;;;12.82;4.68;;;8.10;79.70;;;;;;4972728;28;20038;-88
2021/03/22 10:02:55;;;;;;;16.90;5.15;;;8.10;80.90;;;;;;4949846;28;20450;-88
2021/03/22 10:05:53;;;;;;;17.52;5.00;;;8.20;81.10;;;;;;4983361;28;20039;-89
2021/03/22 10:08:35;;;;;;;15.25;5.32;;;8.50;80.50;;;;;;4955775;28;20046;-90
2021/03/22 10:11:24;;;;;;;11.15;5.07;;;8.80;78.40;;;;;;4963305;28;20073;-90
2021/03/22 10:13:51;;;;;;;15.40;4.88;;;9.10;78.60;;;;;;4973651;28;20431;-89
2021/03/22 10:16:27;;;;;;;14.93;4.57;;;9.20;75.80;;;;;;4957496;28;20080;-89
2021/03/22 10:19:03;;;;;;;13.98;5.15;;;9.20;75.70;;;;;;4983741;28;20369;-89
2021/03/22 10:21:32;;;;;;;10.90;4.90;;;9.10;77.10;;;;;;4966630;28;20038;-88
2021/03/22 10:24:19;;;;;;;19.00;5.43;;;9.10;76.30;;;;;;4975780;28;20050;-88
2021/03/22 10:26:48;;;;;;;17.98;5.15;;;9.10;75.80;;;;;;4981418;28;20278;-89
2021/03/22 10:29:19;;;;;;;13.65;5.95;;;9.10;76.30;;;;;;4959056;28;20450;-91
2021/03/22 10:31:58;;;;;;;9.93;4.82;;;9.20;76.50;;;;;;4958078;28;20049;-90
2021/03/22 10:34:27;;;;;;;17.45;6.57;;;9.40;75.50;;;;;;4983812;28;20050;-93
2021/03/22 10:36:53;;;;;;;9.68;4.78;;;9.60;76.30;;;;;;4957825;28;20104;-90
2021/03/22 10:39:28;;;;;;;16.67;5.10;;;9.70;73.00;;;;;;4974807;28;20050;-89
2021/03/22 10:41:54;;;;;;;19.10;5.00;;;9.80;74.10;;;;;;4961779;28;20085;-90
2021/03/22 10:44:28;;;;;;;8.10;3.90;;;9.80;72.50;;;;;;4963638;28;20038;-90
2021/03/22 10:47:12;;;;;;;13.30;4.97;;;9.80;73.10;;;;;;4960557;28;20317;-89
2021/03/22 10:49:39;;;;;;;14.18;4.40;;;9.80;74.10;;;;;;4963747;28;20130;-89
2021/03/22 10:52:20;;;;;;;12.90;4.93;;;9.90;74.10;;;;;;5050458;28;20397;-89
2021/03/22 10:54:48;;;;;;;13.27;4.28;;;9.90;71.50;;;;;;4959796;28;20427;-93
2021/03/22 10:57:34;;;;;;;18.15;3.97;;;9.80;73.20;;;;;;4959138;28;20046;-94
2021/03/22 11:00:28;;;;;;;13.93;4.43;;;9.90;71.70;;;;;;4969871;28;20042;-92
2021/03/22 11:02:55;;;;;;;14.77;4.82;;;9.90;73.30;;;;;;4963398;28;20047;-89
2021/03/22 11:05:29;;;;;;;10.50;3.97;;;10.00;72.30;;;;;;4979226;28;20050;-90
2021/03/22 11:07:58;;;;;;;12.00;4.53;;;10.20;71.40;;;;;;4966496;28;20042;-91
2021/03/22 11:10:25;;;;;;;9.35;3.70;;;10.10;70.90;;;;;;4980494;28;20543;-91
2021/03/22 11:12:52;;;;;;;13.63;4.13;;;10.10;71.10;;;;;;4957548;28;20287;-90
2021/03/22 11:15:37;;;;;;;10.70;2.55;;;10.10;72.00;;;;;;4957555;28;20050;-91
2021/03/22 11:18:12;;;;;;;9.05;3.30;;;10.10;68.10;;;;;;4973573;28;20042;-91
2021/03/22 11:20:46;;;;;;;11.90;3.78;;;10.00;69.60;;;;;;4957861;28;20042;-89
2021/03/22 11:23:42;;;;;;;17.83;3.65;;;10.00;70.90;;;;;;4965055;28;20041;-91
2021/03/22 11:26:25;;;;;;;12.65;3.92;;;10.00;70.70;;;;;;5057751;28;20084;-90
2021/03/22 11:28:52;;;;;;;;;;;10.00;71.20;;;;;;4962516;28;20035;-92
2021/03/22 11:31:25;;;;;;;13.20;4.05;;;10.10;70.30;;;;;;4958165;28;19968;-91
2021/03/22 11:34:04;;;;;;;6.55;3.25;;;10.10;69.70;;;;;;4959029;28;20031;-90
2021/03/22 11:36:40;;;;;;;15.60;3.78;;;10.20;68.40;;;;;;4957527;28;20389;-90
2021/03/22 11:39:33;;;;;;;8.25;2.60;;;10.10;69.50;;;;;;4956482;28;20039;-90
2021/03/22 11:42:02;;;;;;;10.25;3.97;;;10.20;66.00;;;;;;4954105;28;20045;-90
2021/03/22 11:44:34;;;;;;;9.27;3.95;;;10.30;66.90;;;;;;4965480;28;20118;-92
2021/03/22 11:47:18;;;;;;;8.23;3.50;;;10.40;66.90;;;;;;4986240;28;20070;-92
2021/03/22 11:49:51;;;;;;;12.15;4.03;;;10.60;65.60;;;;;;4991924;28;20038;-92
2021/03/22 11:52:29;;;;;;;9.30;3.30;;;10.70;64.90;;;;;;4960287;28;20070;-87
2021/03/22 11:55:04;;;;;;;9.68;3.60;;;10.90;66.10;;;;;;4961239;28;20042;-89
2021/03/22 11:57:33;;;;;;;16.05;4.43;;;11.10;64.50;;;;;;4961833;28;20510;-89
2021/03/22 12:00:08;;;;;;;12.77;3.35;;;11.10;65.10;;;;;;4957861;28;20043;-89
2021/03/22 12:02:58;;;;;;;8.27;2.72;;;11.10;65.90;;;;;;4984111;28;20039;-90
2021/03/22 12:05:42;;;;;;;9.98;3.78;;;11.20;64.00;;;;;;4959852;28;20046;-91
2021/03/22 12:08:31;;;;;;;10.60;3.50;;;11.20;61.30;;;;;;4956289;28;20042;-90
2021/03/22 12:10:57;;;;;;;9.68;4.05;;;11.30;63.40;;;;;;4964815;28;20401;-90
2021/03/22 12:13:22;;;;;;;4.93;2.58;;;11.40;62.00;;;;;;4959891;28;20039;-90
2021/03/22 12:15:48;;;;;;;11.02;4.45;;;11.50;60.80;;;;;;4976641;28;20049;-91
2021/03/22 12:18:22;;;;;;;12.18;3.03;;;11.60;60.90;;;;;;4977129;28;20030;-90
2021/03/22 12:20:48;;;;;;;7.60;3.13;;;11.70;61.40;;;;;;4960323;28;20045;-91
2021/03/22 12:23:16;;;;;;;14.60;3.97;;;11.80;62.60;;;;;;4974127;28;20034;-90
2021/03/22 12:25:41;;;;;;;8.48;2.90;;;11.80;63.50;;;;;;5078007;28;20369;-91
2021/03/22 12:28:07;;;;;;;11.00;4.88;;;11.80;63.00;;;;;;4976955;28;20063;-91
2021/03/22 12:30:34;;;;;;;12.40;3.28;;;11.80;62.30;;;;;;5078181;28;20078;-90
2021/03/22 12:32:59;;;;;;;10.15;3.67;;;11.90;62.30;;;;;;5077491;28;20129;-91
2021/03/22 12:35:35;;;;;;;9.48;3.30;;;11.90;61.10;;;;;;5078206;28;20419;-91
2021/03/22 12:38:02;;;;;;;7.38;2.75;;;11.90;62.10;;;;;;5077816;28;20034;-90
2021/03/22 12:40:28;;;;;;;8.98;3.22;;;12.00;62.60;;;;;;4980629;28;20043;-91
2021/03/22 12:42:55;;;;;;;8.77;3.20;;;12.00;59.40;;;;;;4960652;28;20041;-88
2021/03/22 12:45:25;;;;;;;12.70;3.53;;;12.10;58.40;;;;;;4976999;28;20035;-88
2021/03/22 12:47:51;;;;;;;10.00;3.65;;;12.20;59.20;;;;;;4959484;28;20039;-91
2021/03/22 12:50:23;;;;;;;8.98;3.13;;;12.10;59.50;;;;;;4960158;28;20043;-90
2021/03/22 12:52:50;;;;;;;6.68;3.03;;;12.10;60.80;;;;;;4963841;28;20046;-88
2021/03/22 12:55:18;;;;;;;11.45;3.35;;;12.00;62.00;;;;;;4976497;28;20129;-89
2021/03/22 12:57:43;;;;;;;13.80;4.03;;;11.90;60.90;;;;;;4974454;28;20108;-89
2021/03/22 13:00:11;;;;;;;14.40;4.03;;;11.60;60.90;;;;;;4975081;28;20046;-91
2021/03/22 13:02:37;;;;;;;10.13;3.50;;;11.50;61.20;;;;;;4975079;28;20039;-91
2021/03/22 13:05:17;;;;;;;8.88;3.33;;;11.50;62.90;;;;;;4954597;28;20039;-91
2021/03/22 13:07:42;;;;;;;11.05;3.72;;;11.50;62.20;;;;;;4976767;28;20053;-89
2021/03/22 13:10:09;;;;;;;6.15;3.33;;;11.60;61.90;;;;;;4959697;28;20039;-90
2021/03/22 13:12:35;;;;;;;5.38;3.45;;;11.70;61.50;;;;;;4994756;28;20038;-89
2021/03/22 13:15:01;;;;;;;11.00;2.95;;;11.80;61.30;;;;;;4957334;28;20121;-88
2021/03/22 13:17:33;;;;;;;6.72;2.72;;;11.80;61.30;;;;;;4957988;28;20125;-90
2021/03/22 13:20:00;;;;;;;7.28;2.83;;;11.80;59.10;;;;;;4950472;28;20049;-89
2021/03/22 13:22:29;;;;;;;7.45;3.30;;;11.60;58.40;;;;;;4968699;28;20037;-88